Time;durP1;ratioP1;P1;durP2;ratioP2;P2;SDS_P1;SDS_P2;PMS_P1;PMS_P2;Temp;Humidity;BMP_temperature;BMP_pressure;BME280_temperature;BME280_humidity;BME280_pressure;Samples;Min_cycle;Max_cycle;Signal;HPM_P1;HPM_P2
2022/07/05 00:00:18;;;;;;;3.77;2.23;;;18.90;99.90;;;;;;4994150;28;20443;-66
2022/07/05 00:02:45;;;;;;;3.00;2.23;;;18.90;99.90;;;;;;4993399;28;20498;-67
2022/07/05 00:05:12;;;;;;;3.40;3.00;;;19.00;99.90;;;;;;4993840;28;20436;-66
2022/07/05 00:07:39;;;;;;;7.33;4.10;;;19.00;99.90;;;;;;4993298;28;21000;-66
2022/07/05 00:10:08;;;;;;;7.43;4.10;;;19.00;99.90;;;;;;4993820;28;20930;-66
2022/07/05 00:12:35;;;;;;;6.20;3.50;;;19.00;99.90;;;;;;4993291;28;20447;-66
2022/07/05 00:15:03;;;;;;;5.80;4.20;;;19.10;99.90;;;;;;4993859;28;20842;-66
2022/07/05 00:17:30;;;;;;;5.03;3.60;;;19.10;99.90;;;;;;4993588;28;21071;-66
2022/07/05 00:19:57;;;;;;;4.40;3.17;;;19.10;99.90;;;;;;4993094;28;20774;-66
2022/07/05 00:22:24;;;;;;;4.60;3.70;;;19.20;99.90;;;;;;4993119;28;20451;-66
2022/07/05 00:24:51;;;;;;;5.63;3.67;;;19.20;99.90;;;;;;4993624;28;20444;-66
2022/07/05 00:27:20;;;;;;;3.83;3.43;;;19.10;99.90;;;;;;4992879;28;20522;-66
2022/07/05 00:29:47;;;;;;;5.20;3.80;;;19.10;99.90;;;;;;4993330;28;20477;-66
2022/07/05 00:32:14;;;;;;;5.97;3.83;;;19.10;99.90;;;;;;4993219;28;20436;-66
2022/07/05 00:34:41;;;;;;;4.70;3.57;;;19.20;99.90;;;;;;4993171;28;20930;-66
2022/07/05 00:37:08;;;;;;;5.07;4.30;;;19.20;99.90;;;;;;4992781;28;20511;-66
2022/07/05 00:39:36;;;;;;;4.67;3.30;;;19.10;99.90;;;;;;4993425;28;20447;-66
2022/07/05 00:42:04;;;;;;;5.47;3.50;;;19.10;99.90;;;;;;4993050;28;20942;-66
2022/07/05 00:44:35;;;;;;;5.07;3.70;;;19.10;99.90;;;;;;4993123;28;20443;-66
2022/07/05 00:47:03;;;;;;;4.90;4.40;;;19.00;99.90;;;;;;4992941;28;20531;-66
2022/07/05 00:49:30;;;;;;;5.40;4.20;;;19.00;99.90;;;;;;4993123;28;20518;-66
2022/07/05 00:51:59;;;;;;;4.37;3.97;;;18.90;99.90;;;;;;4992755;28;20490;-66
2022/07/05 00:54:26;;;;;;;5.50;4.00;;;18.90;99.90;;;;;;4992869;28;20431;-66
2022/07/05 00:56:54;;;;;;;7.33;3.97;;;18.90;99.90;;;;;;4993070;28;20921;-66
2022/07/05 00:59:21;;;;;;;6.20;3.33;;;18.90;99.90;;;;;;4993063;28;20529;-66
2022/07/05 01:01:50;;;;;;;4.80;4.07;;;18.90;99.90;;;;;;4993085;28;20447;-67
2022/07/05 01:04:17;;;;;;;5.23;3.13;;;18.90;99.90;;;;;;4991956;28;20439;-66
2022/07/05 01:06:48;;;;;;;5.70;3.57;;;18.90;99.90;;;;;;4993049;28;20498;-65
2022/07/05 01:09:17;;;;;;;5.17;3.50;;;18.80;99.90;;;;;;4993100;28;20799;-66
2022/07/05 01:11:45;;;;;;;4.47;3.87;;;18.80;99.90;;;;;;4993049;28;20948;-66
2022/07/05 01:14:14;;;;;;;4.53;3.63;;;18.80;99.90;;;;;;4992535;28;20510;-66
2022/07/05 01:16:41;;;;;;;4.43;3.10;;;18.70;99.90;;;;;;4992784;28;20574;-66
2022/07/05 01:19:12;;;;;;;4.70;3.67;;;18.70;99.90;;;;;;4992662;28;21332;-66
2022/07/05 01:21:41;;;;;;;3.70;2.50;;;18.70;99.90;;;;;;4993118;28;20443;-65
2022/07/05 01:24:12;;;;;;;2.93;1.97;;;18.70;99.90;;;;;;4992690;28;20440;-66
2022/07/05 01:26:40;;;;;;;3.40;2.27;;;18.60;99.90;;;;;;4993139;28;20472;-66
2022/07/05 01:29:09;;;;;;;3.10;1.60;;;18.70;99.90;;;;;;4992298;28;20541;-67
2022/07/05 01:31:38;;;;;;;2.50;1.60;;;18.60;99.90;;;;;;4992839;28;20444;-66
2022/07/05 01:34:05;;;;;;;3.37;2.07;;;18.70;99.90;;;;;;4992318;28;20806;-66
2022/07/05 01:36:33;;;;;;;3.03;1.63;;;18.60;99.90;;;;;;4992744;28;20973;-66
2022/07/05 01:39:01;;;;;;;3.17;2.10;;;18.60;99.90;;;;;;4992288;28;20506;-65
2022/07/05 01:41:30;;;;;;;3.00;1.60;;;18.60;99.90;;;;;;4996183;28;20443;-66
2022/07/05 01:43:57;;;;;;;4.30;2.30;;;18.60;99.90;;;;;;4996111;28;20454;-66
2022/07/05 01:46:26;;;;;;;2.47;1.47;;;18.60;99.90;;;;;;4996380;28;20455;-66
2022/07/05 01:48:59;;;;;;;4.07;1.90;;;18.60;99.90;;;;;;4995809;28;20439;-66
2022/07/05 01:51:30;;;;;;;2.57;1.77;;;18.60;99.90;;;;;;4996532;28;20982;-65
2022/07/05 01:53:57;;;;;;;3.37;2.27;;;18.60;99.90;;;;;;4996008;28;20938;-65
2022/07/05 01:56:24;;;;;;;3.23;2.33;;;18.60;99.90;;;;;;4996194;28;20516;-66
2022/07/05 01:58:54;;;;;;;2.67;1.83;;;18.70;99.90;;;;;;4995946;28;20479;-66
2022/07/05 02:01:34;;;;;;;4.17;2.30;;;18.70;99.90;;;;;;4996291;28;20451;-66
2022/07/05 02:04:01;;;;;;;3.17;1.67;;;18.70;99.90;;;;;;4995439;28;20439;-66
2022/07/05 02:06:29;;;;;;;5.93;2.10;;;18.70;99.90;;;;;;4996022;28;20439;-65
2022/07/05 02:08:56;;;;;;;5.27;2.30;;;18.70;99.90;;;;;;4995611;28;20440;-66
2022/07/05 02:11:23;;;;;;;2.90;1.33;;;18.80;99.90;;;;;;4995956;28;20448;-66
2022/07/05 02:13:50;;;;;;;5.07;2.17;;;18.70;99.90;;;;;;4995750;28;20514;-66
2022/07/05 02:16:18;;;;;;;2.67;1.77;;;18.80;99.90;;;;;;4995821;28;20443;-66
2022/07/05 02:18:46;;;;;;;5.87;1.70;;;18.80;99.90;;;;;;4995356;28;20474;-66
2022/07/05 02:21:13;;;;;;;4.60;1.90;;;18.80;99.90;;;;;;4995349;28;20443;-66
2022/07/05 02:23:40;;;;;;;4.60;2.00;;;18.80;99.90;;;;;;4995309;28;20447;-65
2022/07/05 02:26:07;;;;;;;2.90;1.53;;;18.80;99.90;;;;;;4995420;28;20914;-66
2022/07/05 02:28:34;;;;;;;4.73;1.73;;;18.80;99.90;;;;;;4995486;28;20784;-66
2022/07/05 02:31:01;;;;;;;4.20;2.07;;;18.70;99.90;;;;;;4995164;28;20432;-67
2022/07/05 02:33:30;;;;;;;3.13;1.80;;;18.70;99.90;;;;;;4995734;28;20808;-66
2022/07/05 02:35:58;;;;;;;2.80;1.93;;;18.60;99.90;;;;;;4994698;28;20985;-66
2022/07/05 02:38:24;;;;;;;3.00;1.83;;;18.60;99.90;;;;;;4995704;28;20505;-66
2022/07/05 02:40:51;;;;;;;2.60;1.83;;;18.60;99.90;;;;;;4995368;28;20479;-66
2022/07/05 02:43:19;;;;;;;4.17;1.90;;;18.60;99.90;;;;;;4995542;28;20446;-66
2022/07/05 02:45:46;;;;;;;4.37;2.20;;;18.60;99.90;;;;;;4995044;28;20456;-66
2022/07/05 02:48:12;;;;;;;4.80;2.00;;;18.50;99.90;;;;;;4995689;28;20471;-66
2022/07/05 02:50:41;;;;;;;3.03;1.90;;;18.50;99.90;;;;;;4995206;28;20519;-69
2022/07/05 02:53:08;;;;;;;3.67;2.20;;;18.50;99.90;;;;;;4994311;28;20447;-65
2022/07/05 02:55:35;;;;;;;4.23;2.57;;;18.50;99.90;;;;;;4995238;28;20466;-66
2022/07/05 02:58:02;;;;;;;4.37;2.17;;;18.50;99.90;;;;;;4994704;28;20479;-66
2022/07/05 03:00:29;;;;;;;3.70;2.30;;;18.40;99.90;;;;;;4994774;28;20466;-66
2022/07/05 03:02:56;;;;;;;3.87;2.23;;;18.40;99.90;;;;;;4995172;28;20495;-66
2022/07/05 03:05:23;;;;;;;3.83;2.27;;;18.40;99.90;;;;;;4994838;28;20518;-66
2022/07/05 03:07:52;;;;;;;3.30;2.47;;;18.40;99.90;;;;;;4994582;28;20450;-66
2022/07/05 03:10:19;;;;;;;3.60;2.67;;;18.40;99.90;;;;;;4995076;28;20447;-66
2022/07/05 03:12:46;;;;;;;4.27;2.23;;;18.40;99.90;;;;;;4994618;28;20491;-66
2022/07/05 03:15:13;;;;;;;4.20;2.60;;;18.50;99.90;;;;;;4994977;28;20443;-67
2022/07/05 03:17:40;;;;;;;3.53;2.37;;;18.50;99.90;;;;;;4994186;28;20909;-66
2022/07/05 03:20:08;;;;;;;4.10;2.03;;;18.50;99.90;;;;;;4994794;28;20514;-66
2022/07/05 03:22:35;;;;;;;3.50;2.20;;;18.50;99.90;;;;;;4994328;28;20448;-66
2022/07/05 03:25:05;;;;;;;4.90;2.77;;;18.50;99.90;;;;;;4994670;28;20930;-66
2022/07/05 03:27:32;;;;;;;3.27;2.73;;;18.50;99.90;;;;;;4994317;28;20536;-66
2022/07/05 03:29:59;;;;;;;3.30;2.57;;;18.50;99.90;;;;;;4994530;28;20518;-66
2022/07/05 03:32:26;;;;;;;7.30;2.97;;;18.50;99.90;;;;;;4993983;28;20459;-66
2022/07/05 03:34:53;;;;;;;5.47;3.03;;;18.30;99.90;;;;;;4994535;28;20533;-66
2022/07/05 03:37:21;;;;;;;8.57;3.47;;;18.30;99.90;;;;;;4994165;28;20515;-66
2022/07/05 03:39:48;;;;;;;5.40;2.90;;;18.30;99.90;;;;;;4994464;28;20448;-67
2022/07/05 03:42:16;;;;;;;3.20;2.60;;;18.40;99.90;;;;;;4994280;28;20482;-66
2022/07/05 03:44:43;;;;;;;5.27;3.00;;;18.40;99.90;;;;;;4994569;28;20536;-66
2022/07/05 03:47:10;;;;;;;7.43;3.40;;;18.40;99.90;;;;;;4993952;28;20436;-66
2022/07/05 03:49:38;;;;;;;5.80;2.83;;;18.50;99.90;;;;;;4994044;28;20506;-66
2022/07/05 03:52:05;;;;;;;4.77;3.30;;;18.50;99.90;;;;;;4994403;28;20443;-65
2022/07/05 03:54:32;;;;;;;4.07;2.90;;;18.50;99.90;;;;;;4993872;28;20803;-66
2022/07/05 03:56:59;;;;;;;5.73;3.20;;;18.50;99.90;;;;;;4993861;28;20511;-67
2022/07/05 03:59:28;;;;;;;3.80;2.60;;;18.50;99.90;;;;;;4993441;28;20912;-66
2022/07/05 04:01:55;;;;;;;3.57;2.47;;;18.50;99.90;;;;;;4993694;28;20479;-66
2022/07/05 04:04:22;;;;;;;3.87;2.30;;;18.50;99.90;;;;;;4993752;28;20443;-66
2022/07/05 04:06:49;;;;;;;5.77;2.90;;;18.50;99.90;;;;;;4993876;28;20447;-65
2022/07/05 04:09:16;;;;;;;3.70;2.57;;;18.50;99.90;;;;;;4993727;28;20993;-66
2022/07/05 04:11:43;;;;;;;3.73;2.60;;;18.50;99.90;;;;;;4993732;28;20867;-65
2022/07/05 04:14:10;;;;;;;6.70;2.80;;;18.50;99.90;;;;;;4994321;28;20446;-65
2022/07/05 04:16:39;;;;;;;7.63;2.60;;;18.50;99.90;;;;;;4993530;28;20446;-65
2022/07/05 04:19:06;;;;;;;4.60;2.43;;;18.60;99.90;;;;;;4993678;28;20602;-66
2022/07/05 04:21:33;;;;;;;3.90;2.30;;;18.70;99.90;;;;;;4993470;28;20439;-66
2022/07/05 04:24:00;;;;;;;3.63;2.40;;;18.70;99.90;;;;;;4994039;28;20447;-66
2022/07/05 04:26:27;;;;;;;3.57;2.10;;;18.60;99.90;;;;;;4993053;28;20506;-66
2022/07/05 04:28:54;;;;;;;3.50;2.63;;;18.70;99.90;;;;;;4993541;28;20998;-66
2022/07/05 04:31:21;;;;;;;3.00;2.20;;;18.70;99.90;;;;;;4993292;28;20977;-66
2022/07/05 04:33:50;;;;;;;5.13;2.47;;;18.70;99.90;;;;;;4992739;28;20447;-66
2022/07/05 04:36:17;;;;;;;3.63;2.50;;;18.70;99.90;;;;;;4993453;28;20787;-66
2022/07/05 04:38:44;;;;;;;12.37;2.60;;;18.80;99.90;;;;;;4993336;28;20534;-67
2022/07/05 04:41:11;;;;;;;3.93;2.40;;;18.90;99.90;;;;;;4993225;28;20435;-68
2022/07/05 04:43:38;;;;;;;5.07;2.67;;;18.90;99.90;;;;;;4993444;28;20453;-66
2022/07/05 04:46:05;;;;;;;3.40;1.77;;;19.00;99.90;;;;;;4993085;28;20443;-66
2022/07/05 04:48:32;;;;;;;4.50;2.43;;;19.00;99.90;;;;;;4974069;28;20865;-66
2022/07/05 04:51:01;;;;;;;4.03;2.57;;;19.10;99.90;;;;;;4973905;28;20451;-66
2022/07/05 04:53:28;;;;;;;5.27;3.33;;;19.10;99.90;;;;;;4992464;28;20444;-66
2022/07/05 04:55:55;;;;;;;3.90;2.70;;;19.00;99.90;;;;;;4993359;28;20439;-66
2022/07/05 04:58:22;;;;;;;7.17;2.37;;;19.00;99.90;;;;;;4992781;28;20541;-66
2022/07/05 05:00:49;;;;;;;3.43;2.67;;;19.00;99.90;;;;;;4993602;28;20444;-66
2022/07/05 05:03:16;;;;;;;4.33;2.30;;;19.00;99.90;;;;;;4992921;28;20769;-65
2022/07/05 05:05:43;;;;;;;5.10;2.20;;;19.10;99.90;;;;;;4993348;28;20451;-66
2022/07/05 05:08:12;;;;;;;3.80;2.83;;;19.10;99.90;;;;;;4992887;28;20443;-66
2022/07/05 05:10:39;;;;;;;3.10;1.90;;;19.10;99.90;;;;;;4993218;28;20439;-66
2022/07/05 05:13:06;;;;;;;3.60;2.50;;;19.10;99.90;;;;;;4992942;28;20848;-66
2022/07/05 05:15:33;;;;;;;4.97;2.30;;;19.10;99.90;;;;;;4994732;28;20926;-66
2022/07/05 05:18:00;;;;;;;4.40;3.00;;;19.10;99.90;;;;;;4996784;28;21009;-65
2022/07/05 05:20:27;;;;;;;4.00;2.30;;;19.20;99.90;;;;;;4996033;28;20514;-66
2022/07/05 05:22:54;;;;;;;3.20;2.27;;;19.20;99.90;;;;;;4996514;28;20956;-65
2022/07/05 05:25:23;;;;;;;4.23;2.30;;;19.20;99.90;;;;;;4996548;28;20450;-66
2022/07/05 05:27:51;;;;;;;4.27;2.20;;;19.30;99.90;;;;;;4996856;28;20498;-66
2022/07/05 05:30:19;;;;;;;5.27;2.27;;;19.30;99.90;;;;;;4995726;28;20833;-66
2022/07/05 05:32:46;;;;;;;3.90;2.17;;;19.40;99.90;;;;;;4996513;28;20444;-66
2022/07/05 05:35:14;;;;;;;5.63;2.50;;;19.40;99.90;;;;;;4996864;28;20436;-66
2022/07/05 05:37:48;;;;;;;8.20;3.07;;;19.40;99.90;;;;;;4996614;28;20489;-66
2022/07/05 05:40:16;;;;;;;5.80;2.67;;;19.40;99.90;;;;;;4996040;28;20442;-66
2022/07/05 05:42:45;;;;;;;8.43;4.17;;;19.50;99.90;;;;;;4995702;28;20442;-66
2022/07/05 05:45:12;;;;;;;6.07;3.20;;;19.60;99.90;;;;;;4996454;28;20535;-66
2022/07/05 05:47:47;;;;;;;4.90;3.00;;;19.70;99.90;;;;;;4992075;28;20451;-66
2022/07/05 05:50:14;;;;;;;4.90;2.87;;;19.80;99.90;;;;;;4996811;28;20538;-66
2022/07/05 05:52:41;;;;;;;4.57;3.13;;;20.00;99.90;;;;;;4996035;28;20535;-67
2022/07/05 05:55:08;;;;;;;5.33;3.07;;;20.20;99.90;;;;;;4995237;28;20439;-67
2022/07/05 05:57:36;;;;;;;14.37;4.50;;;20.30;99.90;;;;;;4995742;28;21048;-66
2022/07/05 06:00:07;;;;;;;4.37;2.43;;;20.60;99.90;;;;;;4995793;28;20934;-66
2022/07/05 06:02:34;;;;;;;6.50;3.20;;;20.90;99.90;;;;;;4991207;28;20927;-65
2022/07/05 06:05:02;;;;;;;3.37;3.07;;;21.10;99.90;;;;;;4995886;28;20530;-66
2022/07/05 06:07:29;;;;;;;7.13;2.90;;;21.20;99.90;;;;;;4996854;28;20534;-65
2022/07/05 06:09:55;;;;;;;4.37;2.43;;;21.40;99.90;;;;;;4996505;28;20443;-65
2022/07/05 06:12:24;;;;;;;4.40;2.40;;;21.60;99.90;;;;;;4996496;28;20990;-66
2022/07/05 06:14:51;;;;;;;3.40;2.30;;;21.70;99.90;;;;;;4996721;28;20526;-66
2022/07/05 06:17:19;;;;;;;2.60;2.40;;;21.80;99.90;;;;;;4996780;28;20439;-66
2022/07/05 06:19:46;;;;;;;5.93;2.63;;;21.90;99.90;;;;;;4996347;28;20566;-66
2022/07/05 06:22:13;;;;;;;5.37;3.30;;;22.00;99.90;;;;;;4996393;28;20526;-66
2022/07/05 06:24:40;;;;;;;3.47;2.27;;;22.20;99.90;;;;;;4996538;28;20541;-66
2022/07/05 06:27:07;;;;;;;3.30;2.80;;;22.40;99.90;;;;;;4996413;28;20531;-66
2022/07/05 06:29:34;;;;;;;4.17;3.10;;;22.60;99.90;;;;;;4996003;28;20561;-66
2022/07/05 06:32:01;;;;;;;2.93;2.30;;;22.60;99.90;;;;;;4996387;28;20445;-66
2022/07/05 06:34:29;;;;;;;7.00;2.70;;;22.80;99.90;;;;;;4995936;28;20544;-66
2022/07/05 06:36:56;;;;;;;4.57;2.60;;;22.80;99.90;;;;;;4996427;28;20527;-66
2022/07/05 06:39:23;;;;;;;9.97;3.67;;;22.80;99.90;;;;;;4995934;28;20571;-66
2022/07/05 06:41:50;;;;;;;5.60;3.33;;;22.70;99.90;;;;;;4996123;28;20529;-66
2022/07/05 06:44:17;;;;;;;11.30;5.20;;;22.70;99.90;;;;;;4996112;28;20545;-66
2022/07/05 06:46:43;;;;;;;5.43;3.50;;;22.70;99.90;;;;;;4996215;28;20531;-65
2022/07/05 06:49:10;;;;;;;4.63;3.07;;;22.60;99.90;;;;;;4995873;28;20528;-66
2022/07/05 06:51:38;;;;;;;7.30;2.97;;;22.60;99.90;;;;;;4995972;28;20567;-66
2022/07/05 06:54:05;;;;;;;4.33;3.00;;;22.50;99.90;;;;;;5005451;28;20528;-66
2022/07/05 06:56:32;;;;;;;4.53;3.80;;;22.60;99.90;;;;;;5003716;28;20526;-66
2022/07/05 06:58:59;;;;;;;6.07;3.80;;;22.60;99.90;;;;;;5002407;28;20494;-65
2022/07/05 07:01:26;;;;;;;4.73;3.40;;;22.60;99.90;;;;;;5005347;28;20548;-66
2022/07/05 07:03:53;;;;;;;7.40;3.77;;;22.60;99.90;;;;;;5003382;28;20545;-68
2022/07/05 07:06:20;;;;;;;5.27;3.40;;;22.60;99.90;;;;;;4997566;28;20901;-67
2022/07/05 07:11:33;;;;;;;8.50;3.53;;;22.60;99.90;;;;;;5002020;28;20477;-66
2022/07/05 07:14:00;;;;;;;4.77;3.20;;;22.60;99.90;;;;;;5004969;28;20886;-66
2022/07/05 07:16:27;;;;;;;4.43;3.10;;;22.70;99.90;;;;;;4998850;28;20531;-66
2022/07/05 07:18:54;;;;;;;5.50;3.13;;;22.70;99.90;;;;;;4994513;28;20489;-66
2022/07/05 07:21:21;;;;;;;4.17;3.00;;;22.80;99.90;;;;;;4994327;28;20537;-66
2022/07/05 07:23:49;;;;;;;4.10;2.97;;;22.80;99.90;;;;;;4994814;28;20532;-67
2022/07/05 07:26:16;;;;;;;7.20;3.70;;;22.80;99.90;;;;;;4996744;28;20529;-66
2022/07/05 07:28:43;;;;;;;4.60;3.20;;;22.80;99.90;;;;;;4998540;28;20511;-66
2022/07/05 07:31:09;;;;;;;10.13;3.43;;;22.90;99.90;;;;;;4999409;28;20523;-66
2022/07/05 07:33:36;;;;;;;5.30;3.60;;;23.00;99.90;;;;;;5004768;28;20556;-66
2022/07/05 07:36:04;;;;;;;5.47;3.53;;;23.10;99.90;;;;;;5001512;28;20541;-66
2022/07/05 07:38:31;;;;;;;4.13;3.47;;;23.20;99.90;;;;;;5002674;28;20572;-66
2022/07/05 07:41:00;;;;;;;4.50;3.00;;;23.20;99.50;;;;;;5003102;28;20957;-66
2022/07/05 07:43:27;;;;;;;4.73;3.57;;;23.30;99.30;;;;;;5003864;28;20443;-66
2022/07/05 07:45:54;;;;;;;4.17;3.17;;;23.30;99.20;;;;;;4995730;28;20529;-66
2022/07/05 07:48:21;;;;;;;10.90;3.33;;;23.40;99.40;;;;;;5002337;28;20486;-66
2022/07/05 07:50:48;;;;;;;7.50;3.53;;;23.50;98.40;;;;;;5005302;28;20453;-66
2022/07/05 07:53:15;;;;;;;6.83;4.50;;;23.60;99.00;;;;;;4998948;28;20454;-67
2022/07/05 07:55:41;;;;;;;4.67;3.50;;;23.70;97.40;;;;;;5002884;28;20451;-66
2022/07/05 07:58:10;;;;;;;4.90;3.70;;;23.70;95.60;;;;;;5003162;28;20573;-66
2022/07/05 08:00:37;;;;;;;4.53;3.23;;;23.70;95.40;;;;;;5002201;28;21008;-66
2022/07/05 08:03:03;;;;;;;4.67;3.40;;;23.70;95.90;;;;;;5003177;28;20882;-65
2022/07/05 08:05:30;;;;;;;8.43;3.50;;;23.80;96.50;;;;;;5000880;28;20538;-66
2022/07/05 08:07:57;;;;;;;3.30;2.80;;;23.90;97.00;;;;;;5004120;28;20533;-66
2022/07/05 08:10:24;;;;;;;3.67;3.00;;;24.10;97.10;;;;;;5001814;28;20481;-66
2022/07/05 08:12:51;;;;;;;4.23;3.30;;;24.20;97.40;;;;;;5004927;28;20793;-66
2022/07/05 08:15:20;;;;;;;6.00;3.70;;;24.40;95.40;;;;;;4999012;28;20851;-66
2022/07/05 08:23:11;;;;;;;4.37;3.40;;;24.30;94.90;;;;;;5003706;28;20467;-66
2022/07/05 08:25:38;;;;;;;3.97;3.50;;;24.60;95.50;;;;;;5000242;28;20526;-66
2022/07/05 08:28:05;;;;;;;3.47;2.70;;;24.80;95.20;;;;;;5002484;28;20546;-66
2022/07/05 08:30:33;;;;;;;6.80;3.30;;;25.00;93.50;;;;;;5001492;28;20602;-66
2022/07/05 08:33:00;;;;;;;5.03;3.57;;;25.20;93.20;;;;;;5003709;28;20518;-66
2022/07/05 08:35:27;;;;;;;4.20;3.07;;;25.30;92.40;;;;;;5002206;28;20530;-66
2022/07/05 08:37:54;;;;;;;4.00;3.00;;;25.50;93.20;;;;;;4996873;28;20447;-66
2022/07/05 08:40:26;;;;;;;4.70;3.13;;;25.70;93.20;;;;;;5003571;28;20573;-66
2022/07/05 08:42:56;;;;;;;5.30;3.60;;;25.70;92.20;;;;;;5000555;28;20797;-67
2022/07/05 08:45:29;;;;;;;5.10;2.90;;;25.70;91.50;;;;;;5000019;28;20917;-66
2022/07/05 08:48:00;;;;;;;4.70;3.00;;;25.70;91.60;;;;;;4999399;28;20478;-67
2022/07/05 08:50:32;;;;;;;6.47;2.73;;;25.70;91.10;;;;;;4995084;28;20454;-66
2022/07/05 08:53:00;;;;;;;3.43;2.83;;;25.90;92.00;;;;;;4999431;28;20462;-66
2022/07/05 08:55:27;;;;;;;4.27;3.37;;;25.90;91.60;;;;;;4998803;28;20535;-66
2022/07/05 08:57:54;;;;;;;4.17;2.87;;;26.00;90.80;;;;;;5003828;28;20517;-66
2022/07/05 09:00:21;;;;;;;4.77;3.07;;;26.00;90.30;;;;;;5001249;28;20578;-66
2022/07/05 09:02:50;;;;;;;3.77;3.10;;;26.00;90.30;;;;;;5002368;28;20475;-66
2022/07/05 09:05:20;;;;;;;3.73;2.77;;;26.00;89.80;;;;;;4997374;28;20538;-67
2022/07/05 09:07:55;;;;;;;3.87;3.03;;;26.00;87.10;;;;;;5001953;28;20450;-67
2022/07/05 09:10:25;;;;;;;3.13;2.47;;;26.20;87.40;;;;;;5003184;28;20493;-66
2022/07/05 09:12:51;;;;;;;5.50;2.60;;;26.50;87.30;;;;;;5001398;28;20529;-66
2022/07/05 09:15:18;;;;;;;4.07;2.30;;;26.80;85.80;;;;;;5000138;28;20526;-67
2022/07/05 09:17:46;;;;;;;4.97;3.17;;;27.10;86.00;;;;;;5002111;28;20534;-69
2022/07/05 09:20:15;;;;;;;6.13;2.83;;;27.30;82.50;;;;;;5002681;28;20593;-66
2022/07/05 09:22:48;;;;;;;4.83;2.40;;;27.50;80.80;;;;;;5001492;28;20871;-66
2022/07/05 09:25:18;;;;;;;4.60;2.47;;;27.70;78.00;;;;;;5002059;28;20474;-66
2022/07/05 09:27:53;;;;;;;3.33;1.90;;;27.90;78.10;;;;;;5001849;28;20568;-66
2022/07/05 09:30:32;;;;;;;5.20;2.10;;;28.00;75.90;;;;;;5001799;28;20563;-67
2022/07/05 09:33:16;;;;;;;4.20;2.10;;;28.20;72.20;;;;;;5003341;28;20442;-66
2022/07/05 09:35:51;;;;;;;3.00;1.87;;;28.20;68.20;;;;;;4998280;28;20439;-66
2022/07/05 09:38:20;;;;;;;3.50;2.23;;;28.30;66.00;;;;;;5002240;28;20521;-67
2022/07/05 09:40:49;;;;;;;4.33;1.83;;;28.30;64.30;;;;;;5001570;28;20538;-66
2022/07/05 09:43:17;;;;;;;4.93;2.10;;;28.40;68.00;;;;;;5001063;28;20561;-66
2022/07/05 09:45:55;;;;;;;4.17;1.70;;;28.60;68.20;;;;;;5000461;28;20490;-66
2022/07/05 09:48:22;;;;;;;3.63;2.10;;;28.60;62.40;;;;;;5001835;28;20442;-66
2022/07/05 09:50:51;;;;;;;3.17;1.97;;;28.60;62.90;;;;;;5001382;28;20535;-66
2022/07/05 09:53:19;;;;;;;6.80;1.60;;;28.60;63.30;;;;;;5002638;28;20442;-66
2022/07/05 09:56:02;;;;;;;4.10;1.90;;;28.50;62.30;;;;;;5000842;28;20533;-67
2022/07/05 09:58:29;;;;;;;3.60;1.70;;;28.30;62.50;;;;;;5002521;28;20454;-68
2022/07/05 10:00:56;;;;;;;3.23;1.80;;;28.20;62.10;;;;;;5001252;28;20565;-66
2022/07/05 10:03:23;;;;;;;3.47;1.80;;;28.00;59.90;;;;;;5005300;28;20454;-69
2022/07/05 10:05:50;;;;;;;4.03;1.80;;;27.80;61.30;;;;;;5005499;28;20980;-66
2022/07/05 10:08:20;;;;;;;7.00;2.13;;;27.60;60.10;;;;;;5004338;28;20539;-67
2022/07/05 10:10:48;;;;;;;2.43;1.67;;;27.60;58.70;;;;;;5005435;28;20521;-66
2022/07/05 10:13:15;;;;;;;3.80;1.90;;;27.40;59.30;;;;;;5003816;28;20841;-66
2022/07/05 10:15:44;;;;;;;5.70;1.70;;;27.50;58.60;;;;;;4995202;28;20531;-66
2022/07/05 10:18:13;;;;;;;2.83;1.83;;;27.70;60.90;;;;;;4992301;28;20456;-66
2022/07/05 10:20:42;;;;;;;4.13;2.20;;;28.00;58.40;;;;;;5003085;28;20500;-66
2022/07/05 10:23:11;;;;;;;2.57;1.80;;;28.10;56.80;;;;;;5003347;28;20448;-66
2022/07/05 10:25:41;;;;;;;3.83;1.60;;;28.20;57.60;;;;;;5002621;28;20865;-66
2022/07/05 10:28:09;;;;;;;2.73;1.70;;;28.20;55.70;;;;;;5003112;28;20539;-66
2022/07/05 10:30:37;;;;;;;3.33;1.43;;;28.20;55.20;;;;;;5003059;28;20565;-66
2022/07/05 10:33:06;;;;;;;2.63;1.43;;;28.10;55.10;;;;;;4994700;28;21002;-66
2022/07/05 10:35:34;;;;;;;3.33;1.77;;;27.90;55.70;;;;;;5003746;28;20526;-66
2022/07/05 10:38:02;;;;;;;3.53;1.70;;;27.70;56.80;;;;;;4995284;28;21006;-66
2022/07/05 10:40:31;;;;;;;3.20;1.97;;;27.60;57.20;;;;;;4995398;28;20570;-66
2022/07/05 10:43:02;;;;;;;4.90;2.13;;;27.40;58.10;;;;;;4995086;28;20436;-66
2022/07/05 10:45:31;;;;;;;6.67;2.50;;;27.40;59.40;;;;;;4995358;28;20479;-66
2022/07/05 10:48:13;;;;;;;3.00;2.13;;;27.50;60.50;;;;;;4994790;28;20468;-66
2022/07/05 10:50:49;;;;;;;4.53;1.93;;;27.70;61.60;;;;;;4992620;28;20463;-66
2022/07/05 10:53:17;;;;;;;5.27;2.00;;;27.90;63.40;;;;;;4991509;28;20469;-66
2022/07/05 10:56:00;;;;;;;2.60;2.00;;;28.10;61.80;;;;;;4995208;28;20479;-66
2022/07/05 10:58:31;;;;;;;4.10;1.70;;;28.00;55.40;;;;;;5000020;28;20523;-66
2022/07/05 11:01:43;;;;;;;3.60;1.90;;;28.00;57.70;;;;;;4994991;28;20575;-66
2022/07/05 11:04:35;;;;;;;2.87;1.57;;;28.10;58.70;;;;;;4990013;28;20833;-66
2022/07/05 11:07:04;;;;;;;4.83;2.10;;;28.20;57.60;;;;;;4999726;28;20921;-68
2022/07/05 11:09:31;;;;;;;3.40;2.50;;;28.30;52.40;;;;;;4997658;28;20483;-66
2022/07/05 11:12:14;;;;;;;6.80;2.30;;;28.30;53.90;;;;;;4998542;28;20471;-66
2022/07/05 11:14:47;;;;;;;3.67;1.97;;;28.40;54.70;;;;;;4999799;28;20530;-66
2022/07/05 11:17:27;;;;;;;3.10;2.00;;;28.60;55.70;;;;;;4994569;28;20504;-67
2022/07/05 11:20:02;;;;;;;2.10;1.50;;;28.80;56.50;;;;;;4992831;28;20498;-66
2022/07/05 11:22:29;;;;;;;14.73;2.40;;;29.00;54.60;;;;;;4997432;28;20439;-66
2022/07/05 11:24:57;;;;;;;3.17;1.90;;;29.20;52.70;;;;;;4996489;28;20487;-66
2022/07/05 11:27:24;;;;;;;6.10;1.90;;;29.30;52.30;;;;;;4994543;28;20885;-66
2022/07/05 11:29:53;;;;;;;4.00;1.60;;;29.20;51.70;;;;;;5000218;28;20795;-66
2022/07/05 11:32:22;;;;;;;2.83;2.10;;;29.10;52.30;;;;;;4998703;28;20506;-66
2022/07/05 11:34:50;;;;;;;4.73;1.97;;;28.90;52.60;;;;;;4994913;28;20917;-66
2022/07/05 11:37:23;;;;;;;4.20;2.10;;;28.90;54.10;;;;;;4997260;28;20534;-67
2022/07/05 11:40:23;;;;;;;3.07;1.73;;;28.80;51.60;;;;;;4997980;28;20486;-66
2022/07/05 11:42:51;;;;;;;3.27;1.93;;;28.60;51.80;;;;;;4992349;28;20439;-66
2022/07/05 11:45:20;;;;;;;4.07;1.67;;;28.40;52.40;;;;;;4994481;28;20471;-67
2022/07/05 11:47:47;;;;;;;2.77;2.10;;;28.20;53.00;;;;;;4998510;28;20440;-66
2022/07/05 11:50:14;;;;;;;2.60;1.77;;;28.00;53.60;;;;;;4992695;28;20526;-66
2022/07/05 11:52:42;;;;;;;4.27;2.17;;;27.80;52.80;;;;;;4999148;28;20816;-66
2022/07/05 11:55:11;;;;;;;5.80;2.10;;;27.60;52.80;;;;;;4996644;28;20969;-67
2022/07/05 11:57:38;;;;;;;2.80;1.97;;;27.40;52.20;;;;;;4996214;28;20865;-66
2022/07/05 12:00:06;;;;;;;3.37;2.20;;;27.20;53.10;;;;;;4999882;28;20896;-66
2022/07/05 12:02:44;;;;;;;2.93;1.80;;;27.10;53.20;;;;;;4995334;28;20527;-66
2022/07/05 12:05:11;;;;;;;3.50;1.83;;;27.00;54.10;;;;;;4993404;28;20466;-66
2022/07/05 12:07:40;;;;;;;3.10;1.60;;;26.90;54.70;;;;;;4997356;28;20795;-66
2022/07/05 12:12:53;;;;;;;3.20;1.73;;;26.90;54.30;;;;;;4998172;28;20443;-66
2022/07/05 12:15:21;;;;;;;3.67;1.53;;;26.90;54.90;;;;;;4996945;28;20961;-66
2022/07/05 12:17:51;;;;;;;5.40;1.87;;;26.90;53.50;;;;;;4997404;28;20989;-67
2022/07/05 12:20:23;;;;;;;2.60;1.60;;;27.10;54.40;;;;;;4993978;28;20482;-66
2022/07/05 12:22:50;;;;;;;3.63;1.80;;;27.30;54.00;;;;;;5000301;28;20519;-66
2022/07/05 12:25:19;;;;;;;2.40;1.50;;;27.50;53.50;;;;;;4993727;28;20477;-67
2022/07/05 12:27:47;;;;;;;3.53;1.80;;;27.50;51.60;;;;;;4995092;28;20531;-66
2022/07/05 12:30:15;;;;;;;2.77;1.73;;;27.50;53.30;;;;;;4999305;28;20466;-66
2022/07/05 12:32:57;;;;;;;3.17;2.27;;;27.50;53.50;;;;;;4996142;28;20831;-66
2022/07/05 12:35:32;;;;;;;5.17;1.80;;;27.50;52.70;;;;;;4995724;28;20493;-66
2022/07/05 12:38:05;;;;;;;4.60;1.70;;;27.50;53.40;;;;;;4995928;28;20478;-66
2022/07/05 12:40:31;;;;;;;2.70;1.87;;;27.50;54.10;;;;;;4997020;28;20533;-66
2022/07/05 12:43:06;;;;;;;2.77;1.60;;;27.40;53.60;;;;;;4997806;28;20531;-66
2022/07/05 12:45:34;;;;;;;3.83;1.53;;;27.40;54.10;;;;;;4996716;28;20486;-66
2022/07/05 12:48:05;;;;;;;3.97;1.60;;;27.40;53.40;;;;;;4997626;28;20532;-66
2022/07/05 12:50:46;;;;;;;3.67;1.70;;;27.30;53.30;;;;;;4991118;28;20440;-67
2022/07/05 12:58:51;;;;;;;2.30;1.40;;;27.10;53.70;;;;;;4992957;28;20458;-66
2022/07/05 13:01:22;;;;;;;2.63;1.60;;;26.90;53.70;;;;;;4997715;28;20489;-66
2022/07/05 13:04:09;;;;;;;2.20;1.30;;;26.70;54.00;;;;;;4994354;28;20522;-66
2022/07/05 13:06:48;;;;;;;4.70;1.50;;;26.50;55.20;;;;;;4992391;28;20455;-66
2022/07/05 13:09:17;;;;;;;3.60;2.03;;;26.30;56.60;;;;;;4989163;28;20443;-66